Time;durP1;ratioP1;P1;durP2;ratioP2;P2;SDS_P1;SDS_P2;PMS_P1;PMS_P2;Temp;Humidity;BMP_temperature;BMP_pressure;BME280_temperature;BME280_humidity;BME280_pressure;Samples;Min_cycle;Max_cycle;Signal;HPM_P1;HPM_P2
2022/05/31 00:01:45;;;;;;;11.80;7.18;;;;;;;7.78;78.22;99103.16;5065156;28;20036;-56
2022/05/31 00:04:11;;;;;;;15.00;6.75;;;;;;;7.78;78.04;99100.50;5066784;28;20042;-55
2022/05/31 00:06:36;;;;;;;12.50;7.22;;;;;;;7.70;77.53;99101.63;5040542;28;20048;-55
2022/05/31 00:09:02;;;;;;;11.70;7.00;;;;;;;7.61;77.61;99097.66;5046302;28;20029;-56
2022/05/31 00:11:28;;;;;;;10.05;6.80;;;;;;;7.62;77.22;99099.31;5044768;28;20041;-55
2022/05/31 00:13:53;;;;;;;14.90;6.53;;;;;;;7.48;77.49;99098.66;5045017;28;20028;-55
2022/05/31 00:16:19;;;;;;;13.48;7.50;;;;;;;7.46;78.11;99095.41;5044112;28;20423;-55
2022/05/31 00:18:44;;;;;;;11.43;6.35;;;;;;;7.52;78.36;99094.50;5045313;28;20029;-56
2022/05/31 00:21:09;;;;;;;10.77;7.72;;;;;;;7.53;78.28;99088.13;5044041;28;20426;-55
2022/05/31 00:23:35;;;;;;;14.05;7.07;;;;;;;7.44;78.20;99092.16;5047421;28;20033;-56
2022/05/31 00:26:00;;;;;;;13.82;7.53;;;;;;;7.58;77.84;99098.13;5002889;28;20029;-56
2022/05/31 00:28:26;;;;;;;13.02;7.20;;;;;;;7.61;78.35;99100.31;5044302;28;20369;-55
2022/05/31 00:30:51;;;;;;;11.25;7.85;;;;;;;7.65;77.96;99092.69;5044903;28;20111;-56
2022/05/31 00:33:17;;;;;;;11.68;7.13;;;;;;;7.63;77.83;99100.91;5004330;28;20340;-56
2022/05/31 00:35:44;;;;;;;12.77;7.80;;;;;;;7.37;78.48;99102.09;5043884;28;20029;-56
2022/05/31 00:38:10;;;;;;;10.60;7.30;;;;;;;7.28;78.51;99108.75;5044106;28;20036;-56
2022/05/31 00:40:36;;;;;;;14.85;7.90;;;;;;;7.31;78.23;99109.13;5018601;28;20037;-56
2022/05/31 00:43:12;;;;;;;13.30;7.97;;;;;;;7.50;78.68;99106.44;5045062;28;20033;-55
2022/05/31 00:45:46;;;;;;;10.95;7.65;;;;;;;7.44;78.08;99110.81;5043095;28;20064;-55
2022/05/31 00:48:17;;;;;;;12.15;7.60;;;;;;;7.17;78.59;99104.19;5021428;28;20278;-54
2022/05/31 00:50:46;;;;;;;11.82;7.05;;;;;;;6.98;79.81;99104.19;5023073;28;20025;-56
2022/05/31 00:53:17;;;;;;;10.75;7.00;;;;;;;7.12;79.40;99108.31;5027350;28;20029;-55
2022/05/31 00:55:56;;;;;;;12.55;7.75;;;;;;;7.25;78.31;99110.03;4998530;28;20056;-55
2022/05/31 00:58:29;;;;;;;14.05;7.50;;;;;;;7.34;78.32;99102.53;5044137;28;20063;-55
2022/05/31 01:00:55;;;;;;;10.77;7.50;;;;;;;7.35;78.34;99099.63;5025252;28;20082;-56
2022/05/31 01:03:22;;;;;;;14.40;7.90;;;;;;;7.48;78.13;99100.50;5013430;28;20043;-55
2022/05/31 01:05:47;;;;;;;11.27;7.47;;;;;;;7.38;77.90;99098.38;5019658;28;20033;-55
2022/05/31 01:08:13;;;;;;;13.23;7.63;;;;;;;7.50;79.14;99093.09;5057184;28;20044;-57
2022/05/31 01:10:40;;;;;;;16.42;7.22;;;;;;;7.42;78.02;99104.91;5064968;28;20044;-56
2022/05/31 01:13:05;;;;;;;9.05;6.68;;;;;;;7.32;78.03;99104.63;5045440;28;20035;-55
2022/05/31 01:15:31;;;;;;;13.48;6.63;;;;;;;7.37;77.70;99112.75;5035637;28;20024;-55
2022/05/31 01:17:56;;;;;;;16.15;6.70;;;;;;;7.47;77.95;99101.56;5064213;28;20070;-55
2022/05/31 01:20:22;;;;;;;10.43;7.53;;;;;;;7.46;77.34;99111.41;5063948;28;20516;-56
2022/05/31 01:22:52;;;;;;;10.60;7.32;;;;;;;7.30;78.13;99101.34;5062938;28;20502;-58
2022/05/31 01:25:24;;;;;;;12.40;7.00;;;;;;;7.42;78.76;99098.75;5063368;28;20501;-55
2022/05/31 01:28:11;;;;;;;13.38;7.07;;;;;;;7.65;80.89;99098.03;5064493;28;20474;-55
2022/05/31 01:30:41;;;;;;;10.15;6.82;;;;;;;7.63;78.46;99100.09;5064573;28;20054;-55
2022/05/31 01:33:16;;;;;;;10.48;7.18;;;;;;;7.41;78.74;99089.91;5027234;28;20103;-56
2022/05/31 01:35:42;;;;;;;13.25;7.63;;;;;;;7.25;79.25;99082.56;5046184;28;20035;-56
2022/05/31 01:38:12;;;;;;;10.20;6.80;;;;;;;7.15;80.11;99092.94;5035311;28;20024;-55
2022/05/31 01:40:55;;;;;;;10.95;6.88;;;;;;;7.17;78.71;99090.88;5068220;28;20049;-56
2022/05/31 01:43:22;;;;;;;13.35;7.10;;;;;;;7.12;79.71;99088.88;5045212;28;20029;-56
2022/05/31 01:46:09;;;;;;;11.82;7.53;;;;;;;7.13;79.20;99090.47;5050195;28;20109;-55
2022/05/31 01:48:35;;;;;;;11.45;6.95;;;;;;;7.12;78.82;99088.88;5050356;28;20032;-56
2022/05/31 01:51:00;;;;;;;11.23;7.13;;;;;;;6.91;80.87;99084.78;5066175;28;20525;-56
2022/05/31 01:53:26;;;;;;;14.60;7.57;;;;;;;6.84;82.06;99084.03;5067701;28;20035;-56
2022/05/31 01:55:51;;;;;;;13.45;7.57;;;;;;;6.70;81.77;99083.38;5033900;28;20021;-56
2022/05/31 01:58:19;;;;;;;16.20;7.03;;;;;;;6.79;82.88;99079.41;5051318;28;20145;-56
2022/05/31 02:00:45;;;;;;;11.85;6.97;;;;;;;6.94;81.26;99080.84;5067636;28;20025;-55
2022/05/31 02:03:11;;;;;;;12.25;7.07;;;;;;;6.85;80.99;99072.34;5052062;28;20028;-55
2022/05/31 02:05:43;;;;;;;15.13;7.57;;;;;;;6.85;81.73;99075.03;5050105;28;20100;-55
2022/05/31 02:08:08;;;;;;;12.18;7.85;;;;;;;6.95;81.45;99072.66;5067015;28;20083;-56
2022/05/31 02:10:34;;;;;;;11.98;6.97;;;;;;;7.02;81.57;99068.06;5068177;28;20037;-56
2022/05/31 02:12:59;;;;;;;10.25;7.15;;;;;;;7.24;82.31;99070.25;5067760;28;20033;-53
2022/05/31 02:15:25;;;;;;;11.93;7.10;;;;;;;7.09;80.53;99074.13;5066318;28;20036;-55
2022/05/31 02:17:50;;;;;;;9.43;6.63;;;;;;;7.06;81.24;99069.25;5067622;28;20027;-55
2022/05/31 02:20:16;;;;;;;11.82;7.35;;;;;;;7.04;81.33;99066.00;5066728;28;20529;-55
2022/05/31 02:22:41;;;;;;;12.23;6.95;;;;;;;7.19;80.86;99072.78;5067602;28;20028;-56
2022/05/31 02:25:08;;;;;;;13.40;6.22;;;;;;;7.09;80.68;99073.31;5045192;28;20344;-56
2022/05/31 02:27:33;;;;;;;8.00;5.07;;;;;;;7.09;81.15;99068.81;5066599;28;20028;-55
2022/05/31 02:29:58;;;;;;;10.88;5.65;;;;;;;7.12;81.28;99068.34;5066192;28;20378;-56
2022/05/31 02:32:24;;;;;;;9.32;5.13;;;;;;;7.03;81.14;99067.00;5067838;28;20039;-55
2022/05/31 02:34:50;;;;;;;14.50;7.57;;;;;;;7.02;81.05;99057.41;5066742;28;20020;-55
2022/05/31 02:37:16;;;;;;;11.65;7.78;;;;;;;6.81;82.89;99055.19;5066328;28;20033;-55
2022/05/31 02:39:41;;;;;;;9.90;6.85;;;;;;;6.93;83.33;99053.41;5065805;28;20029;-55
2022/05/31 02:42:08;;;;;;;10.00;6.60;;;;;;;6.83;83.86;99053.13;5068306;28;20611;-56
2022/05/31 02:44:33;;;;;;;10.70;6.40;;;;;;;6.82;83.42;99048.84;5065505;28;20391;-55
2022/05/31 02:46:59;;;;;;;10.48;6.40;;;;;;;6.75;83.00;99046.22;5043669;28;20112;-55
2022/05/31 02:49:24;;;;;;;10.13;5.70;;;;;;;6.48;83.69;99048.34;5066441;28;20117;-55
2022/05/31 02:51:50;;;;;;;9.38;5.30;;;;;;;6.39;84.40;99053.16;5067111;28;20034;-55
2022/05/31 02:54:16;;;;;;;12.65;4.38;;;;;;;6.32;84.53;99055.06;5065716;28;20025;-56
2022/05/31 02:56:42;;;;;;;7.47;4.47;;;;;;;6.56;83.20;99041.94;5065621;28;20038;-55
2022/05/31 02:59:08;;;;;;;7.70;3.80;;;;;;;6.52;83.09;99046.09;5067328;28;20024;-55
2022/05/31 03:01:35;;;;;;;6.30;3.35;;;;;;;6.43;83.41;99040.22;5067352;28;20251;-55
2022/05/31 03:04:01;;;;;;;6.40;3.70;;;;;;;6.42;83.80;99033.28;5049247;28;20028;-55
2022/05/31 03:06:26;;;;;;;5.75;3.80;;;;;;;6.22;84.57;99031.59;5067074;28;20071;-55
2022/05/31 03:08:51;;;;;;;10.75;3.78;;;;;;;6.40;83.82;99027.34;5066155;28;20020;-56
2022/05/31 03:11:25;;;;;;;5.63;3.45;;;;;;;6.69;82.51;99033.81;5064194;28;20032;-54
2022/05/31 03:13:52;;;;;;;6.78;3.33;;;;;;;6.87;81.75;99023.16;5069853;28;20031;-54
2022/05/31 03:16:17;;;;;;;5.82;3.38;;;;;;;6.70;81.48;99033.56;5032031;28;20032;-56
2022/05/31 03:18:46;;;;;;;14.48;5.50;;;;;;;6.55;82.85;99029.66;5059893;28;20083;-55
2022/05/31 03:21:20;;;;;;;13.25;6.90;;;;;;;6.66;83.39;99027.09;5050476;28;20108;-55
2022/05/31 03:23:53;;;;;;;11.75;6.38;;;;;;;6.62;82.33;99019.75;5051192;28;20495;-57
2022/05/31 03:26:18;;;;;;;13.50;7.68;;;;;;;6.53;83.69;99013.09;5070208;28;20890;-56
2022/05/31 03:28:44;;;;;;;9.10;4.75;;;;;;;6.37;84.23;99022.47;5029258;28;20078;-56
2022/05/31 03:31:09;;;;;;;8.75;4.35;;;;;;;6.40;83.68;99020.16;5037948;28;20032;-55
2022/05/31 03:33:35;;;;;;;8.50;5.13;;;;;;;6.59;84.09;99025.50;5067571;28;20016;-54
2022/05/31 03:36:00;;;;;;;16.70;6.85;;;;;;;6.51;83.21;99017.81;5067042;28;20036;-55
2022/05/31 03:38:29;;;;;;;10.10;5.55;;;;;;;6.57;83.69;99023.06;5067568;28;20178;-55
2022/05/31 03:40:57;;;;;;;9.98;5.45;;;;;;;6.44;83.83;99018.72;5068674;28;20465;-54
2022/05/31 03:43:27;;;;;;;7.32;3.78;;;;;;;6.48;83.94;99024.38;5068888;28;20441;-55
2022/05/31 03:45:53;;;;;;;;;;;;;;;6.67;82.93;99020.72;5050223;28;20047;-55
2022/05/31 03:48:18;;;;;;;5.90;3.63;;;;;;;6.75;82.39;99019.59;5069304;28;20354;-55
2022/05/31 03:50:44;;;;;;;9.35;3.83;;;;;;;6.70;82.95;99025.59;5069446;28;20040;-55
2022/05/31 03:53:12;;;;;;;9.48;5.88;;;;;;;6.73;84.01;99023.53;5063373;28;20027;-55
2022/05/31 03:55:41;;;;;;;14.25;6.65;;;;;;;7.85;80.46;99013.16;5069887;28;20123;-55
2022/05/31 03:58:07;;;;;;;10.40;5.70;;;;;;;9.17;73.53;99014.47;5040807;28;20106;-56
2022/05/31 04:00:32;;;;;;;8.57;5.20;;;;;;;8.75;73.35;99011.22;5068264;28;20458;-55
2022/05/31 04:02:58;;;;;;;6.68;4.22;;;;;;;9.37;72.39;99005.19;5051399;28;20569;-55
2022/05/31 04:05:23;;;;;;;4.95;3.25;;;;;;;11.35;64.21;99000.25;5068246;28;20035;-55
2022/05/31 04:07:53;;;;;;;6.53;3.33;;;;;;;12.12;61.42;99000.94;5048540;28;20048;-55
2022/05/31 04:10:18;;;;;;;5.93;3.22;;;;;;;12.69;59.52;99005.59;5065041;28;20033;-56
2022/05/31 04:12:44;;;;;;;14.70;5.75;;;;;;;13.92;56.08;99014.81;5068296;28;20429;-56
2022/05/31 04:15:09;;;;;;;8.23;4.63;;;;;;;13.27;57.76;99019.03;5068399;28;20052;-56
2022/05/31 04:17:34;;;;;;;6.25;3.45;;;;;;;11.05;64.37;99019.50;5056690;28;20113;-56
2022/05/31 04:20:00;;;;;;;5.53;3.33;;;;;;;9.80;68.01;99014.50;5068246;28;20044;-56
2022/05/31 04:22:25;;;;;;;7.00;3.40;;;;;;;9.08;71.60;99005.19;5041334;28;20025;-55
2022/05/31 04:24:54;;;;;;;9.27;5.13;;;;;;;9.03;72.23;99008.56;5067566;28;20020;-56
2022/05/31 04:27:20;;;;;;;11.20;5.53;;;;;;;8.00;76.12;99000.19;5068100;28;20029;-56
2022/05/31 04:29:45;;;;;;;9.90;4.90;;;;;;;8.23;77.94;99003.91;5067147;28;20059;-56
2022/05/31 04:32:11;;;;;;;8.18;5.22;;;;;;;8.56;76.05;98998.00;5068328;28;20028;-55
2022/05/31 04:34:37;;;;;;;7.60;4.72;;;;;;;8.47;76.18;98998.59;5068837;28;20127;-56
2022/05/31 04:37:03;;;;;;;11.02;5.47;;;;;;;8.49;76.89;98999.19;5067790;28;20029;-54
2022/05/31 04:39:28;;;;;;;9.52;5.20;;;;;;;8.50;75.65;99003.47;5067620;28;20036;-56
2022/05/31 04:41:54;;;;;;;10.00;5.82;;;;;;;8.49;76.85;99000.00;5067435;28;20025;-59
2022/05/31 04:44:19;;;;;;;10.23;5.20;;;;;;;8.08;76.15;98995.56;5068096;28;20031;-57
2022/05/31 04:46:45;;;;;;;10.38;5.03;;;;;;;8.27;76.64;98999.75;5067606;28;20473;-56
2022/05/31 04:49:10;;;;;;;8.25;4.60;;;;;;;8.63;76.85;99008.56;5044436;28;20021;-53
2022/05/31 04:51:36;;;;;;;8.30;4.97;;;;;;;10.20;71.44;99010.84;5049644;28;20368;-56
2022/05/31 04:54:02;;;;;;;6.93;4.53;;;;;;;10.77;67.92;99005.22;5067801;28;20024;-56
2022/05/31 04:56:28;;;;;;;8.65;5.13;;;;;;;9.69;72.27;98998.28;5067680;28;20032;-56
2022/05/31 04:58:53;;;;;;;20.40;9.95;;;;;;;9.17;75.04;99001.09;5062199;28;20425;-56
2022/05/31 05:01:19;;;;;;;18.33;8.30;;;;;;;9.37;74.88;99002.53;5067905;28;20029;-56
2022/05/31 05:03:45;;;;;;;9.95;6.57;;;;;;;9.85;73.19;99003.88;5065558;28;20070;-55
2022/05/31 05:06:12;;;;;;;12.30;6.30;;;;;;;9.60;73.76;99001.59;5067333;28;20041;-56
2022/05/31 05:08:38;;;;;;;8.75;5.95;;;;;;;11.39;68.04;98994.13;5066297;28;20047;-56
2022/05/31 05:11:11;;;;;;;11.48;5.43;;;;;;;11.17;68.14;98996.03;5039976;28;20036;-55
2022/05/31 05:13:37;;;;;;;10.85;6.13;;;;;;;11.29;66.95;98998.59;5066774;28;20038;-56
2022/05/31 05:16:03;;;;;;;12.25;5.80;;;;;;;14.12;60.21;99002.41;5067529;28;20024;-56
2022/05/31 05:18:30;;;;;;;12.20;5.57;;;;;;;13.48;59.14;99009.94;5067281;28;20047;-56
2022/05/31 05:20:55;;;;;;;9.10;5.25;;;;;;;15.77;53.62;99009.59;5066154;28;20031;-55
2022/05/31 05:23:21;;;;;;;8.32;5.10;;;;;;;16.33;51.56;99005.63;5067127;28;20110;-56
2022/05/31 05:25:50;;;;;;;9.60;4.40;;;;;;;18.67;44.38;99008.78;5067304;28;20051;-57
2022/05/31 05:31:00;;;;;;;9.32;3.97;;;;;;;18.31;43.40;98998.56;5065681;28;20090;-55
2022/05/31 05:33:27;;;;;;;25.23;5.00;;;;;;;15.49;49.38;99008.41;5064858;28;20024;-55
2022/05/31 05:35:52;;;;;;;30.60;6.18;;;;;;;15.38;51.86;99004.19;5063767;28;20459;-55
2022/05/31 05:38:18;;;;;;;31.30;4.28;;;;;;;15.80;50.22;99002.81;5066474;28;20059;-54
2022/05/31 05:40:43;;;;;;;28.48;5.13;;;;;;;15.19;51.62;99001.31;5066550;28;20036;-55
2022/05/31 05:43:09;;;;;;;30.67;5.07;;;;;;;14.16;55.81;98995.41;5066214;28;20410;-54
2022/05/31 05:45:35;;;;;;;26.20;4.90;;;;;;;13.32;58.99;98994.81;5047826;28;20078;-54
2022/05/31 05:48:00;;;;;;;21.48;4.72;;;;;;;13.30;59.80;98989.69;5063166;28;20031;-55
2022/05/31 05:50:26;;;;;;;23.60;5.22;;;;;;;13.15;60.22;98995.00;5058706;28;20040;-54
2022/05/31 05:52:56;;;;;;;21.63;5.00;;;;;;;13.70;59.42;98996.19;5063980;28;20185;-54
2022/05/31 05:55:22;;;;;;;13.50;4.68;;;;;;;15.35;54.78;98985.81;5047410;28;20524;-54
2022/05/31 05:57:47;;;;;;;26.50;5.00;;;;;;;19.20;44.67;98996.59;5066418;28;20044;-56
2022/05/31 06:00:13;;;;;;;29.77;5.93;;;;;;;18.66;44.06;98999.00;5066488;28;20024;-54
2022/05/31 06:02:39;;;;;;;28.42;5.05;;;;;;;18.37;46.12;98996.59;5066028;28;20107;-54
2022/05/31 06:05:12;;;;;;;36.53;5.55;;;;;;;18.58;45.76;98997.00;5067439;28;20077;-56
2022/05/31 06:08:03;;;;;;;42.60;4.90;;;;;;;20.47;42.80;99005.53;5047885;28;20044;-56
2022/05/31 06:10:33;;;;;;;51.03;5.93;;;;;;;21.67;38.90;98999.91;5045997;28;20080;-55
2022/05/31 06:13:08;;;;;;;46.67;6.53;;;;;;;20.45;41.58;99003.13;5066809;28;20116;-56
2022/05/31 06:15:35;;;;;;;33.80;5.25;;;;;;;21.99;38.41;98998.59;5023938;28;20048;-55
2022/05/31 06:18:01;;;;;;;34.63;5.70;;;;;;;22.44;37.47;99000.94;5019587;28;20108;-55
2022/05/31 06:20:27;;;;;;;24.33;4.47;;;;;;;22.56;37.17;99006.47;5025642;28;20488;-57
2022/05/31 06:22:53;;;;;;;30.42;4.88;;;;;;;21.33;38.47;98999.53;5051711;28;20036;-55
2022/05/31 06:25:20;;;;;;;20.48;4.35;;;;;;;21.26;38.85;98991.03;5069672;28;20025;-56
2022/05/31 06:27:47;;;;;;;21.30;4.10;;;;;;;22.29;37.63;98980.41;5052992;28;20078;-55
2022/05/31 06:30:12;;;;;;;24.75;4.32;;;;;;;22.67;36.73;98995.22;5041339;28;20033;-56
2022/05/31 06:32:38;;;;;;;31.67;4.68;;;;;;;22.47;37.18;98991.28;5069715;28;20531;-56
2022/05/31 06:35:03;;;;;;;21.38;4.38;;;;;;;23.76;35.38;98990.81;5070310;28;20029;-56
2022/05/31 06:37:30;;;;;;;22.45;4.75;;;;;;;22.18;37.76;98993.56;5065394;28;20119;-56
2022/05/31 06:39:55;;;;;;;21.45;4.18;;;;;;;23.77;35.93;98992.44;5070535;28;20387;-55
2022/05/31 06:42:21;;;;;;;25.33;4.45;;;;;;;22.74;36.55;98987.28;5069308;28;20031;-57
2022/05/31 06:44:46;;;;;;;19.23;4.00;;;;;;;22.55;37.34;98996.69;5050513;28;20416;-55
2022/05/31 06:47:12;;;;;;;22.98;4.20;;;;;;;23.25;36.07;98994.41;5070381;28;20467;-55
2022/05/31 06:49:37;;;;;;;28.15;4.75;;;;;;;24.30;34.70;98991.56;5070538;28;20702;-56
2022/05/31 06:57:33;;;;;;;19.90;3.65;;;;;;;24.39;34.30;98985.16;5069334;28;20035;-56
2022/05/31 06:59:59;;;;;;;27.52;3.97;;;;;;;24.28;34.56;98987.56;5043812;28;20032;-55
2022/05/31 07:02:25;;;;;;;30.27;3.90;;;;;;;24.09;34.75;98985.38;5069105;28;20032;-56
2022/05/31 07:04:51;;;;;;;37.58;4.22;;;;;;;25.25;33.45;98982.47;5053147;28;20020;-56
2022/05/31 07:07:16;;;;;;;22.33;3.85;;;;;;;24.76;33.78;98980.53;5067916;28;20040;-54
2022/05/31 07:09:41;;;;;;;28.02;3.95;;;;;;;23.78;35.47;98981.13;5068301;28;20024;-56
2022/05/31 07:12:07;;;;;;;23.83;3.92;;;;;;;23.90;34.72;98980.41;5059582;28;20102;-57
2022/05/31 07:14:33;;;;;;;28.73;4.32;;;;;;;23.75;35.31;98983.75;5070318;28;20032;-56
2022/05/31 07:16:58;;;;;;;26.42;3.70;;;;;;;24.58;34.02;98981.94;5069763;28;20028;-56
2022/05/31 07:19:24;;;;;;;21.25;3.67;;;;;;;25.42;33.39;98982.22;5068874;28;20402;-56
2022/05/31 07:21:50;;;;;;;25.52;3.50;;;;;;;24.62;34.24;98980.13;5069113;28;20081;-55
2022/05/31 07:24:16;;;;;;;19.58;3.42;;;;;;;25.03;33.32;98990.00;5051988;28;20037;-57
2022/05/31 07:26:41;;;;;;;13.70;3.15;;;;;;;24.63;33.40;98984.44;5068217;28;20062;-56
2022/05/31 07:29:09;;;;;;;19.23;3.47;;;;;;;23.99;34.64;98983.84;5069348;28;20020;-57
2022/05/31 07:31:35;;;;;;;22.75;3.53;;;;;;;22.54;37.45;98986.91;5069196;28;20549;-56
2022/05/31 07:34:01;;;;;;;23.52;3.65;;;;;;;21.81;38.47;98972.47;5069567;28;20067;-55
2022/05/31 07:36:27;;;;;;;12.40;3.15;;;;;;;23.08;36.77;98977.34;5068804;28;20043;-56
2022/05/31 07:38:52;;;;;;;12.55;3.17;;;;;;;24.15;35.10;98969.53;5051869;28;20024;-55
2022/05/31 07:41:18;;;;;;;16.35;3.67;;;;;;;23.84;35.48;98962.59;5068722;28;20059;-55
2022/05/31 07:43:43;;;;;;;14.07;3.50;;;;;;;24.27;34.41;98962.13;5068868;28;20037;-55
2022/05/31 07:46:10;;;;;;;14.05;3.00;;;;;;;22.15;37.87;98953.28;5069373;28;20028;-55
2022/05/31 07:48:37;;;;;;;13.82;2.83;;;;;;;23.29;36.47;98956.28;5068202;28;20103;-56
2022/05/31 07:51:03;;;;;;;24.10;3.30;;;;;;;23.30;36.60;98957.09;5068311;28;20029;-55
2022/05/31 07:53:29;;;;;;;14.57;3.03;;;;;;;22.20;38.72;98948.81;5050810;28;20386;-55
2022/05/31 07:56:01;;;;;;;12.23;3.17;;;;;;;21.00;39.73;98954.78;5067462;28;20555;-55
2022/05/31 07:58:32;;;;;;;14.68;3.05;;;;;;;20.57;41.27;98947.31;5069489;28;20459;-55
2022/05/31 08:00:59;;;;;;;17.17;3.03;;;;;;;23.90;36.36;98942.06;5068359;28;20492;-54
2022/05/31 08:03:25;;;;;;;21.08;3.28;;;;;;;23.40;37.28;98932.84;5069010;28;20105;-55
2022/05/31 08:05:50;;;;;;;19.75;3.08;;;;;;;22.98;37.07;98940.25;5068723;28;20448;-55
2022/05/31 08:08:16;;;;;;;24.23;3.33;;;;;;;20.95;40.94;98938.59;5051352;28;20071;-55
2022/05/31 08:10:41;;;;;;;20.63;3.47;;;;;;;21.27;41.09;98940.06;5068097;28;20386;-55
2022/05/31 08:13:06;;;;;;;19.98;3.42;;;;;;;24.31;35.44;98938.41;5067792;28;20028;-54
2022/05/31 08:15:32;;;;;;;25.15;3.50;;;;;;;22.74;38.09;98935.38;5068290;28;20032;-55
2022/05/31 08:17:57;;;;;;;23.98;3.53;;;;;;;23.13;37.56;98926.00;5044400;28;20037;-56
2022/05/31 08:20:23;;;;;;;29.92;4.18;;;;;;;23.71;36.45;98934.34;5051038;28;20441;-55
2022/05/31 08:22:48;;;;;;;21.13;3.78;;;;;;;23.77;35.41;98932.25;5033977;28;20028;-56
2022/05/31 08:25:14;;;;;;;27.23;3.88;;;;;;;21.76;39.16;98927.84;5047704;28;20506;-55
2022/05/31 08:27:39;;;;;;;24.60;3.28;;;;;;;21.81;39.44;98937.00;5068515;28;20107;-58
2022/05/31 08:30:05;;;;;;;27.10;3.88;;;;;;;23.00;38.37;98938.00;5067506;28;20074;-55
2022/05/31 08:32:31;;;;;;;24.27;3.88;;;;;;;22.60;38.94;98938.38;5034328;28;20041;-55
2022/05/31 08:34:57;;;;;;;17.55;3.00;;;;;;;24.43;35.95;98931.31;5066536;28;20039;-55
2022/05/31 08:37:22;;;;;;;21.17;3.33;;;;;;;25.69;33.86;98941.41;5067146;28;20041;-55
2022/05/31 08:39:48;;;;;;;20.88;3.20;;;;;;;26.40;32.16;98935.03;5067306;28;20036;-55
2022/05/31 08:42:15;;;;;;;27.85;3.20;;;;;;;24.81;34.99;98941.97;5067066;28;20024;-54
2022/05/31 08:45:06;;;;;;;14.18;3.10;;;;;;;24.08;36.56;98934.47;5051448;28;20044;-55
2022/05/31 08:47:46;;;;;;;13.27;3.10;;;;;;;20.44;41.69;98928.03;5063666;28;20037;-56
2022/05/31 08:53:19;;;;;;;8.85;2.80;;;;;;;24.58;34.74;98933.41;5048285;28;20078;-56
2022/05/31 08:58:43;;;;;;;13.25;2.80;;;;;;;23.32;36.22;98933.75;5052374;28;20102;-55
2022/05/31 09:01:10;;;;;;;16.05;3.00;;;;;;;21.74;40.91;98940.22;5048168;28;20025;-55
2022/05/31 09:03:52;;;;;;;11.88;2.70;;;;;;;20.92;42.42;98931.03;5037656;28;20060;-54
2022/05/31 09:06:22;;;;;;;15.70;2.85;;;;;;;20.46;41.90;98938.56;5045655;28;20032;-54
2022/05/31 09:09:03;;;;;;;23.27;3.03;;;;;;;20.17;43.41;98936.41;5022686;28;20443;-55
2022/05/31 09:11:33;;;;;;;19.92;3.88;;;;;;;19.55;43.71;98926.25;5046543;28;20170;-55
2022/05/31 09:14:11;;;;;;;22.77;3.83;;;;;;;19.48;44.46;98929.38;5050757;28;20056;-55
2022/05/31 09:16:36;;;;;;;29.70;3.97;;;;;;;19.77;43.30;98937.13;5028617;28;20086;-54
2022/05/31 09:19:04;;;;;;;23.95;3.13;;;;;;;19.38;45.39;98937.78;5066935;28;20028;-54
2022/05/31 09:21:37;;;;;;;15.70;3.00;;;;;;;19.16;45.30;98935.81;5055761;28;20081;-54
2022/05/31 09:24:03;;;;;;;24.88;3.10;;;;;;;19.26;45.62;98929.34;5065913;28;20123;-55
2022/05/31 09:26:53;;;;;;;18.20;3.25;;;;;;;19.78;43.59;98933.28;5050276;28;20033;-54
2022/05/31 09:29:33;;;;;;;9.95;2.40;;;;;;;19.13;44.18;98931.00;5068653;28;20048;-51
2022/05/31 09:32:27;;;;;;;7.47;2.63;;;;;;;20.04;42.82;98938.91;5067097;28;20028;-54
2022/05/31 09:34:57;;;;;;;12.77;3.10;;;;;;;20.52;42.91;98939.22;5062894;28;20086;-55
2022/05/31 09:37:34;;;;;;;;;;;;;;;18.85;45.74;98933.00;5048409;28;20167;-54
2022/05/31 09:40:05;;;;;;;12.98;2.53;;;;;;;19.12;46.09;98946.50;5066824;28;19916;-54
2022/05/31 09:43:00;;;;;;;11.10;2.53;;;;;;;19.90;43.91;98946.31;5066433;28;20039;-51
2022/05/31 09:45:26;;;;;;;10.55;2.70;;;;;;;19.99;43.83;98941.75;5036377;28;20033;-54
2022/05/31 09:47:51;;;;;;;8.65;2.50;;;;;;;20.64;43.11;98934.84;5037942;28;20552;-54
2022/05/31 09:50:24;;;;;;;6.25;2.13;;;;;;;20.26;43.34;98934.50;5044936;28;20028;-54
2022/05/31 09:52:56;;;;;;;15.13;2.30;;;;;;;21.05;41.43;98938.28;5065915;28;20020;-54
2022/05/31 09:58:20;;;;;;;11.45;2.72;;;;;;;19.94;42.98;98938.34;5070548;28;20522;-53
2022/05/31 10:01:02;;;;;;;11.45;2.90;;;;;;;19.73;44.60;98933.41;5069461;28;20039;-53
2022/05/31 10:03:39;;;;;;;6.10;2.20;;;;;;;21.09;41.48;98933.78;5069465;28;20040;-54
2022/05/31 10:06:13;;;;;;;14.18;2.65;;;;;;;20.53;41.65;98929.97;5067908;28;20482;-54
2022/05/31 10:08:39;;;;;;;10.02;2.83;;;;;;;18.15;46.40;98921.31;5070631;28;20048;-56
2022/05/31 10:11:07;;;;;;;11.35;2.40;;;;;;;19.09;45.03;98919.94;5071421;28;20024;-53
2022/05/31 10:13:36;;;;;;;7.20;2.38;;;;;;;19.44;44.27;98917.50;5027093;28;20029;-54
2022/05/31 10:16:33;;;;;;;8.73;2.50;;;;;;;19.69;44.06;98921.53;5070962;28;20482;-54
2022/05/31 10:19:00;;;;;;;8.10;2.63;;;;;;;19.85;43.61;98919.25;5054366;28;20487;-56
2022/05/31 10:21:33;;;;;;;14.10;2.63;;;;;;;19.92;43.28;98914.19;5051721;28;20040;-54
2022/05/31 10:24:15;;;;;;;14.63;3.17;;;;;;;19.60;45.37;98916.03;5069985;28;20040;-54
2022/05/31 10:26:41;;;;;;;6.45;2.22;;;;;;;20.12;43.50;98909.28;5070269;28;20021;-55
2022/05/31 10:29:36;;;;;;;9.70;2.63;;;;;;;19.37;44.86;98903.56;5069636;28;20032;-56
2022/05/31 10:32:08;;;;;;;8.38;2.25;;;;;;;20.07;43.81;98909.44;5054956;28;20079;-54
2022/05/31 10:34:44;;;;;;;4.35;2.42;;;;;;;20.77;42.55;98911.31;5048112;28;20379;-54
2022/05/31 10:37:32;;;;;;;10.70;2.70;;;;;;;20.98;42.29;98911.50;5070063;28;20032;-54
2022/05/31 10:40:14;;;;;;;6.82;2.42;;;;;;;21.10;41.68;98908.16;5069991;28;20118;-55
2022/05/31 10:42:41;;;;;;;5.85;2.50;;;;;;;20.40;42.96;98908.00;5051458;28;20029;-53
2022/05/31 10:45:07;;;;;;;7.32;2.33;;;;;;;20.54;42.03;98907.84;5025494;28;20071;-56
2022/05/31 10:47:33;;;;;;;8.38;2.50;;;;;;;19.99;43.92;98909.09;5051739;28;20108;-54
2022/05/31 10:49:58;;;;;;;5.50;2.60;;;;;;;20.79;43.41;98909.09;5051835;28;21814;-56
2022/05/31 10:52:48;;;;;;;16.75;2.85;;;;;;;20.82;42.38;98894.84;5069508;28;20028;-52
2022/05/31 10:55:26;;;;;;;6.22;2.63;;;;;;;20.83;41.34;98896.41;5046405;28;20025;-56
2022/05/31 10:58:15;;;;;;;6.20;2.50;;;;;;;21.74;41.40;98905.56;5044568;28;20036;-53
2022/05/31 11:00:58;;;;;;;6.75;2.70;;;;;;;20.46;42.91;98901.25;5042235;28;20048;-52
2022/05/31 11:03:35;;;;;;;6.75;2.60;;;;;;;19.70;44.28;98904.13;5064860;28;20099;-54
2022/05/31 11:06:09;;;;;;;5.55;2.50;;;;;;;18.88;45.65;98897.88;5051814;28;20020;-55
2022/05/31 11:11:29;;;;;;;7.15;3.05;;;;;;;18.35;46.76;98900.34;5061365;28;20116;-56
2022/05/31 11:14:09;;;;;;;8.50;2.50;;;;;;;18.79;47.31;98896.19;5070197;28;20031;-55
2022/05/31 11:17:05;;;;;;;5.63;3.38;;;;;;;18.50;47.41;98897.31;5068471;28;20044;-54
2022/05/31 11:19:48;;;;;;;9.73;2.60;;;;;;;18.43;47.14;98896.91;5049722;28;20041;-54
2022/05/31 11:22:50;;;;;;;5.13;2.63;;;;;;;17.79;46.62;98905.63;5068284;28;20034;-54
2022/05/31 11:25:37;;;;;;;7.60;2.30;;;;;;;17.88;47.20;98892.25;5051870;28;20422;-55
2022/05/31 11:28:28;;;;;;;4.57;2.35;;;;;;;18.72;44.60;98900.09;5069492;28;20028;-55
2022/05/31 11:31:41;;;;;;;5.38;2.30;;;;;;;17.74;45.60;98885.94;5042751;28;20021;-56
2022/05/31 11:34:36;;;;;;;6.38;2.47;;;;;;;18.17;45.74;98883.84;4986676;28;20036;-54
2022/05/31 11:37:15;;;;;;;6.00;2.30;;;;;;;18.84;44.06;98894.16;4957119;28;20539;-55
2022/05/31 11:40:07;;;;;;;8.38;2.42;;;;;;;19.10;42.97;98882.75;5033994;28;20036;-55
2022/05/31 11:42:51;;;;;;;8.70;2.33;;;;;;;19.02;42.93;98892.41;5034218;28;20035;-55
2022/05/31 11:45:38;;;;;;;8.48;2.58;;;;;;;19.35;42.98;98884.06;5062436;28;20482;-55
2022/05/31 11:48:06;;;;;;;5.53;2.38;;;;;;;18.49;43.92;98887.53;5055605;28;20036;-54
2022/05/31 11:50:34;;;;;;;9.43;2.45;;;;;;;18.51;43.97;98891.56;5055919;28;20028;-55
2022/05/31 11:53:09;;;;;;;8.15;2.60;;;;;;;18.15;46.68;98899.63;5062974;28;20318;-55
2022/05/31 11:56:33;;;;;;;18.05;2.80;;;;;;;17.73;49.14;98912.25;5067130;28;20035;-54
2022/05/31 11:59:11;;;;;;;12.60;2.90;;;;;;;17.08;53.85;98934.66;4982674;28;20493;-54
2022/05/31 12:02:12;;;;;;;10.70;2.70;;;;;;;17.83;55.78;98941.94;5045578;28;20086;-55
2022/05/31 12:04:43;;;;;;;7.53;2.58;;;;;;;18.46;57.72;98923.44;5002494;28;20084;-55